Time;durP1;ratioP1;P1;durP2;ratioP2;P2;SDS_P1;SDS_P2;PMS_P1;PMS_P2;Temp;Humidity;BMP_temperature;BMP_pressure;BME280_temperature;BME280_humidity;BME280_pressure;Samples;Min_cycle;Max_cycle;Signal;HPM_P1;HPM_P2
2021/07/02 00:00:17;;;;;;;3.80;3.30;;;;;;;20.91;54.57;99568.24;126893;1088;103043;-83
2021/07/02 00:03:19;;;;;;;3.40;3.10;;;;;;;20.90;54.62;99567.41;126804;1089;114346;-83
2021/07/02 00:06:07;;;;;;;3.77;2.77;;;;;;;20.89;55.04;99571.03;126707;1090;102933;-83
2021/07/02 00:08:57;;;;;;;3.63;2.87;;;;;;;20.87;54.76;99572.97;126771;1089;118241;-82
2021/07/02 00:11:45;;;;;;;3.20;2.90;;;;;;;20.85;54.91;99574.92;126770;1089;103004;-85
2021/07/02 00:14:34;;;;;;;6.30;3.20;;;;;;;20.81;55.06;99573.47;126614;1089;114412;-82
2021/07/02 00:17:23;;;;;;;4.07;3.17;;;;;;;20.75;55.50;99584.61;126775;1090;102859;-84
2021/07/02 00:20:16;;;;;;;4.17;3.10;;;;;;;20.76;55.43;99580.98;126717;1088;114114;-84
2021/07/02 00:23:05;;;;;;;4.30;3.13;;;;;;;20.75;55.50;99581.95;126771;1090;103023;-84
2021/07/02 00:25:54;;;;;;;2.90;2.70;;;;;;;20.73;55.45;99584.74;126679;1089;114034;-84
2021/07/02 00:28:43;;;;;;;6.00;3.03;;;;;;;20.70;55.53;99582.36;126829;1089;104247;-85
2021/07/02 00:31:33;;;;;;;3.63;3.23;;;;;;;20.65;55.94;99591.67;126730;1090;114180;-84
2021/07/02 00:34:24;;;;;;;3.03;2.77;;;;;;;20.62;55.95;99589.25;126762;1090;102842;-84
2021/07/02 00:37:15;;;;;;;3.97;2.83;;;;;;;20.59;56.14;99589.52;126639;1088;113181;-84
2021/07/02 00:40:07;;;;;;;3.37;2.90;;;;;;;20.56;56.41;99585.32;126733;1089;103470;-84
2021/07/02 00:42:56;;;;;;;2.60;2.40;;;;;;;20.58;56.17;99590.48;126767;1090;102881;-82
2021/07/02 00:45:46;;;;;;;3.27;2.90;;;;;;;20.56;56.16;99595.08;126752;1090;113799;-84
2021/07/02 00:48:35;;;;;;;3.37;2.80;;;;;;;20.54;56.77;99599.66;126775;1088;102837;-84
2021/07/02 00:51:24;;;;;;;3.60;2.90;;;;;;;20.53;57.02;99590.05;126652;1090;114255;-84
2021/07/02 00:54:12;;;;;;;6.10;2.90;;;;;;;20.47;56.65;99586.11;126715;1089;103170;-84
2021/07/02 00:57:03;;;;;;;2.73;2.53;;;;;;;20.43;57.50;99585.50;126638;1088;114333;-84
2021/07/02 00:59:53;;;;;;;4.10;2.73;;;;;;;20.39;57.96;99584.05;126859;1090;102910;-84
2021/07/02 01:02:42;;;;;;;2.63;2.43;;;;;;;20.33;57.99;99595.16;126801;1089;114485;-84
2021/07/02 01:05:35;;;;;;;2.90;2.30;;;;;;;20.29;58.26;99593.73;126753;1088;102853;-84
2021/07/02 01:08:24;;;;;;;3.90;2.43;;;;;;;20.23;58.21;99595.06;126671;1090;113353;-84
2021/07/02 01:11:13;;;;;;;3.63;2.57;;;;;;;20.20;58.65;99594.48;126770;1090;102903;-85
2021/07/02 01:14:02;;;;;;;3.47;2.57;;;;;;;20.15;58.64;99596.67;126643;1089;114361;-83
2021/07/02 01:16:50;;;;;;;3.40;2.53;;;;;;;20.07;59.18;99599.93;126760;1090;102841;-84
2021/07/02 01:19:49;;;;;;;3.47;2.67;;;;;;;19.97;59.34;99603.47;126633;1090;114300;-84
2021/07/02 01:22:39;;;;;;;3.20;2.77;;;;;;;19.89;59.45;99594.33;126734;1090;102856;-84
2021/07/02 01:25:33;;;;;;;3.93;2.70;;;;;;;19.85;59.55;99594.70;126780;1090;114673;-84
2021/07/02 01:28:26;;;;;;;5.30;2.53;;;;;;;19.76;59.98;99596.31;126820;1089;103098;-84
2021/07/02 01:31:14;;;;;;;3.90;3.10;;;;;;;19.69;60.62;99589.80;126768;1089;102937;-84
2021/07/02 01:34:05;;;;;;;3.10;2.77;;;;;;;19.67;60.71;99590.90;126893;1090;103036;-82
2021/07/02 01:36:53;;;;;;;3.37;3.07;;;;;;;19.61;61.02;99586.95;126842;1089;102846;-82
2021/07/02 01:39:43;;;;;;;4.77;2.70;;;;;;;19.53;61.41;99592.80;126603;1090;113012;-82
2021/07/02 01:42:33;;;;;;;3.00;2.53;;;;;;;19.46;61.15;99598.71;126830;1090;103287;-82
2021/07/02 01:45:22;;;;;;;3.00;2.60;;;;;;;19.40;61.86;99600.05;126695;1088;114173;-82
2021/07/02 01:48:11;;;;;;;2.67;2.43;;;;;;;19.35;61.79;99601.34;126886;1090;102820;-82
2021/07/02 01:50:59;;;;;;;4.00;2.40;;;;;;;19.30;62.17;99599.08;126646;1089;114158;-82
2021/07/02 01:53:48;;;;;;;4.07;2.90;;;;;;;19.23;62.42;99590.80;126917;1089;103004;-82
2021/07/02 01:56:37;;;;;;;4.47;2.50;;;;;;;19.18;62.68;99603.50;126751;1090;114371;-84
2021/07/02 01:59:26;;;;;;;2.63;2.27;;;;;;;19.18;62.81;99600.86;126887;1090;102943;-82
2021/07/02 02:02:24;;;;;;;3.25;2.58;;;;;;;19.12;62.85;99611.08;126579;1090;114498;-84
2021/07/02 02:05:15;;;;;;;2.93;2.40;;;;;;;19.05;63.81;99605.44;126762;1090;103058;-82
2021/07/02 02:08:04;;;;;;;2.77;2.20;;;;;;;19.00;63.42;99618.14;126776;1090;114449;-82
2021/07/02 02:10:59;;;;;;;4.63;2.30;;;;;;;18.95;63.68;99609.73;126758;1090;102948;-82
2021/07/02 02:13:51;;;;;;;4.23;2.43;;;;;;;18.90;63.95;99614.55;126707;1089;114255;-82
2021/07/02 02:16:41;;;;;;;2.83;2.27;;;;;;;18.85;63.84;99609.61;126711;1090;103377;-82
2021/07/02 02:19:32;;;;;;;2.90;2.47;;;;;;;18.79;64.39;99612.70;126847;1090;102852;-82
2021/07/02 02:22:21;;;;;;;3.10;2.33;;;;;;;18.78;64.56;99618.11;126824;1090;113977;-82
2021/07/02 02:25:09;;;;;;;3.37;2.23;;;;;;;18.76;64.48;99614.74;126891;1088;102845;-82
2021/07/02 02:27:58;;;;;;;2.80;2.40;;;;;;;18.70;64.54;99610.78;126688;1089;114457;-83
2021/07/02 02:30:46;;;;;;;3.40;2.73;;;;;;;18.71;65.41;99608.02;126909;1089;102911;-83
2021/07/02 02:33:35;;;;;;;4.23;2.20;;;;;;;18.71;65.11;99618.58;126672;1089;114261;-83
2021/07/02 02:36:24;;;;;;;4.13;2.30;;;;;;;18.70;64.77;99618.70;126869;1090;102863;-83
2021/07/02 02:39:12;;;;;;;3.27;2.40;;;;;;;18.68;65.38;99617.98;126652;1089;114307;-83
2021/07/02 02:42:00;;;;;;;2.90;2.50;;;;;;;18.68;65.81;99620.63;126782;1088;102839;-83
2021/07/02 02:44:48;;;;;;;3.13;2.53;;;;;;;18.67;65.72;99609.22;126674;1090;114296;-82
2021/07/02 02:47:37;;;;;;;4.23;2.30;;;;;;;18.61;65.58;99604.34;126789;1090;102947;-83
2021/07/02 02:50:26;;;;;;;2.95;2.60;;;;;;;18.59;65.69;99610.70;126630;1088;114901;-83
2021/07/02 02:53:15;;;;;;;2.90;2.60;;;;;;;18.56;65.94;99601.22;126712;1090;102948;-83
2021/07/02 02:56:04;;;;;;;7.33;2.97;;;;;;;18.56;66.17;99598.58;126663;1088;114328;-83
2021/07/02 02:58:51;;;;;;;3.50;2.70;;;;;;;18.52;65.98;99599.77;126757;1089;102929;-82
2021/07/02 03:01:39;;;;;;;4.10;2.50;;;;;;;18.49;66.21;99599.13;126818;1088;102956;-83
2021/07/02 03:04:28;;;;;;;3.97;2.90;;;;;;;18.50;66.32;99599.05;126697;1088;114098;-83
2021/07/02 03:07:16;;;;;;;4.67;2.93;;;;;;;18.51;66.26;99600.73;126774;1090;102892;-83
2021/07/02 03:10:06;;;;;;;3.03;2.70;;;;;;;18.54;66.53;99605.77;126764;1090;114150;-83
2021/07/02 03:12:56;;;;;;;3.00;2.70;;;;;;;18.55;66.46;99602.17;126949;1089;102915;-83
2021/07/02 03:15:44;;;;;;;5.40;2.73;;;;;;;18.54;66.41;99603.13;126628;1090;114207;-82
2021/07/02 03:18:32;;;;;;;2.77;2.50;;;;;;;18.55;66.63;99601.33;126755;1090;102904;-82
2021/07/02 03:21:21;;;;;;;3.17;2.70;;;;;;;18.56;66.47;99603.86;126786;1090;114274;-82
2021/07/02 03:24:10;;;;;;;3.80;3.10;;;;;;;18.56;66.52;99606.50;126856;1090;102951;-82
2021/07/02 03:26:58;;;;;;;4.00;3.47;;;;;;;18.53;66.72;99606.73;126773;1090;114332;-82
2021/07/02 03:29:45;;;;;;;3.07;2.77;;;;;;;18.55;66.58;99618.02;126868;1089;102872;-83
2021/07/02 03:32:33;;;;;;;3.43;3.10;;;;;;;18.56;66.64;99603.02;126745;1089;114543;-82
2021/07/02 03:35:23;;;;;;;3.63;3.13;;;;;;;18.54;66.48;99603.13;126841;1088;102948;-82
2021/07/02 03:38:12;;;;;;;4.03;3.63;;;;;;;18.52;66.99;99596.28;126704;1088;114256;-82
2021/07/02 03:41:00;;;;;;;4.43;3.40;;;;;;;18.51;66.32;99595.45;126884;1088;102938;-82
2021/07/02 03:43:49;;;;;;;3.80;3.40;;;;;;;18.50;66.76;99598.20;126858;1089;103009;-82
2021/07/02 03:46:38;;;;;;;4.63;2.93;;;;;;;18.51;66.48;99599.89;126827;1089;114225;-84
2021/07/02 03:49:28;;;;;;;3.70;3.40;;;;;;;18.50;66.37;99604.33;126872;1090;102843;-84
2021/07/02 03:52:17;;;;;;;4.43;3.67;;;;;;;18.54;67.07;99605.77;126714;1088;113257;-82
2021/07/02 03:55:06;;;;;;;3.90;3.60;;;;;;;18.57;66.84;99610.82;126843;1089;102945;-82
2021/07/02 03:57:53;;;;;;;4.87;3.57;;;;;;;18.58;66.38;99607.22;126643;1090;114296;-82
2021/07/02 04:00:42;;;;;;;4.67;3.53;;;;;;;18.63;67.04;99609.54;126704;1088;102929;-82
2021/07/02 04:03:32;;;;;;;4.00;3.57;;;;;;;18.63;66.86;99607.73;126670;1090;113019;-82
2021/07/02 04:06:20;;;;;;;4.37;3.93;;;;;;;18.63;66.77;99602.45;126773;1090;102984;-82
2021/07/02 04:09:07;;;;;;;6.27;4.50;;;;;;;18.63;66.78;99609.54;126648;1089;114148;-82
2021/07/02 04:12:15;;;;;;;5.23;4.27;;;;;;;18.63;66.65;99605.09;126736;1090;103216;-82
2021/07/02 04:15:06;;;;;;;8.07;3.73;;;;;;;18.61;66.79;99609.63;126785;1090;114222;-82
2021/07/02 04:17:53;;;;;;;4.73;4.27;;;;;;;18.63;67.02;99605.09;126694;1090;102856;-82
2021/07/02 04:20:42;;;;;;;5.40;4.90;;;;;;;18.73;66.89;99599.13;126781;1090;114532;-82
2021/07/02 04:23:30;;;;;;;5.03;4.63;;;;;;;18.80;66.79;99600.34;126714;1090;102927;-82
2021/07/02 04:26:18;;;;;;;5.70;4.50;;;;;;;18.84;66.50;99593.85;126653;1088;114235;-83
2021/07/02 04:29:06;;;;;;;4.97;4.57;;;;;;;18.84;66.32;99592.05;126715;1090;102899;-82
2021/07/02 04:31:54;;;;;;;5.00;4.40;;;;;;;18.88;66.55;99598.80;126732;1088;102873;-84
2021/07/02 04:34:42;;;;;;;5.63;4.80;;;;;;;18.94;66.38;99602.77;126661;1089;112988;-82
2021/07/02 04:37:30;;;;;;;5.30;4.80;;;;;;;18.96;65.93;99600.84;126898;1089;102892;-82
2021/07/02 04:40:17;;;;;;;5.47;4.90;;;;;;;18.95;65.93;99599.16;126656;1090;114273;-82
2021/07/02 04:43:05;;;;;;;6.43;5.30;;;;;;;18.96;65.82;99606.97;126812;1089;102885;-82
2021/07/02 04:45:53;;;;;;;5.40;4.90;;;;;;;19.00;66.03;99613.70;126770;1088;114215;-82
2021/07/02 04:48:59;;;;;;;5.10;4.60;;;;;;;19.08;65.62;99614.93;126755;1089;102867;-84
2021/07/02 04:51:48;;;;;;;6.10;5.43;;;;;;;19.09;65.69;99620.09;126719;1090;114246;-83
2021/07/02 04:54:36;;;;;;;5.70;5.20;;;;;;;19.08;65.22;99622.86;126687;1090;103116;-82
2021/07/02 04:57:23;;;;;;;7.60;6.57;;;;;;;19.03;65.11;99631.15;126610;1090;114333;-82
2021/07/02 05:00:13;;;;;;;6.90;5.70;;;;;;;19.07;66.12;99639.68;126728;1090;102919;-83
2021/07/02 05:03:00;;;;;;;5.63;4.97;;;;;;;19.08;65.45;99639.56;126698;1090;114277;-83
2021/07/02 05:05:49;;;;;;;4.80;4.40;;;;;;;19.10;65.26;99640.27;126701;1089;102892;-83
2021/07/02 05:08:38;;;;;;;5.70;5.07;;;;;;;19.04;65.31;99632.83;126679;1090;114317;-83
2021/07/02 05:11:26;;;;;;;5.70;5.20;;;;;;;19.00;65.11;99645.41;126761;1089;102905;-83
2021/07/02 05:14:14;;;;;;;5.10;4.70;;;;;;;19.04;65.56;99643.40;126702;1090;102856;-83
2021/07/02 05:17:04;;;;;;;5.83;5.33;;;;;;;19.07;65.05;99639.68;126749;1089;102937;-82
2021/07/02 05:19:52;;;;;;;6.47;5.33;;;;;;;19.03;65.23;99644.36;126801;1090;102850;-83
2021/07/02 05:22:40;;;;;;;4.70;4.30;;;;;;;18.98;65.08;99649.13;126660;1089;114324;-83
2021/07/02 05:25:28;;;;;;;5.90;5.30;;;;;;;18.95;65.27;99652.02;126801;1089;102863;-83
2021/07/02 05:28:16;;;;;;;5.80;5.20;;;;;;;18.87;64.95;99649.13;126717;1090;114453;-82
2021/07/02 05:31:04;;;;;;;;;;;;;;;18.88;65.01;99650.81;126881;1089;103830;-83
2021/07/02 05:33:51;;;;;;;7.53;6.40;;;;;;;18.86;65.17;99647.45;126773;1088;103010;-84
2021/07/02 05:36:39;;;;;;;6.70;5.90;;;;;;;18.85;65.25;99651.02;126708;1090;103208;-84
2021/07/02 05:39:28;;;;;;;5.37;4.87;;;;;;;18.83;65.11;99656.42;126639;1090;114213;-84
2021/07/02 05:42:21;;;;;;;5.33;4.83;;;;;;;18.85;65.30;99651.02;126771;1090;103124;-84
2021/07/02 05:45:11;;;;;;;9.43;5.53;;;;;;;18.88;65.24;99656.09;126789;1088;114449;-84
2021/07/02 05:48:00;;;;;;;7.13;5.47;;;;;;;18.83;64.82;99653.78;126735;1089;102868;-84
2021/07/02 05:50:48;;;;;;;6.03;5.43;;;;;;;18.79;65.03;99651.49;126742;1088;114286;-84
2021/07/02 05:53:36;;;;;;;7.03;5.60;;;;;;;18.82;65.21;99653.89;126765;1089;103419;-83
2021/07/02 05:56:28;;;;;;;5.60;5.10;;;;;;;18.86;65.32;99660.66;126925;1089;102671;-83
2021/07/02 05:59:16;;;;;;;6.00;5.50;;;;;;;18.96;64.93;99661.63;126651;1090;114125;-83
2021/07/02 06:02:04;;;;;;;6.23;5.63;;;;;;;18.95;65.24;99654.66;126730;1090;102978;-83
2021/07/02 06:04:52;;;;;;;6.97;6.27;;;;;;;18.96;64.99;99661.63;126577;1089;114283;-84
2021/07/02 06:07:54;;;;;;;8.47;7.07;;;;;;;18.95;64.77;99667.88;126808;1090;102847;-84
2021/07/02 06:10:41;;;;;;;9.53;7.53;;;;;;;18.91;65.00;99663.78;126617;1090;114207;-83
2021/07/02 06:13:29;;;;;;;9.60;7.77;;;;;;;18.97;65.14;99665.95;126764;1088;102926;-83
2021/07/02 06:16:17;;;;;;;10.67;8.60;;;;;;;19.07;65.13;99661.66;126601;1090;114126;-83
2021/07/02 06:19:04;;;;;;;10.10;8.07;;;;;;;19.16;64.72;99657.45;126733;1090;103045;-84
2021/07/02 06:21:53;;;;;;;11.43;9.30;;;;;;;19.19;64.38;99655.41;126649;1089;114284;-83
2021/07/02 06:24:41;;;;;;;10.93;9.47;;;;;;;19.30;64.54;99655.44;126861;1090;103316;-84
2021/07/02 06:27:29;;;;;;;12.47;10.37;;;;;;;19.35;64.30;99662.16;126682;1089;114613;-84
2021/07/02 06:30:18;;;;;;;12.83;11.53;;;;;;;19.30;64.28;99663.37;126746;1090;102895;-83
2021/07/02 06:33:06;;;;;;;12.73;11.43;;;;;;;19.27;63.87;99662.77;126718;1090;114622;-83
2021/07/02 06:35:54;;;;;;;12.73;11.40;;;;;;;19.24;64.34;99677.07;126809;1090;103003;-82
2021/07/02 06:38:41;;;;;;;16.23;13.13;;;;;;;19.25;63.71;99677.91;126806;1089;102668;-83
2021/07/02 06:41:29;;;;;;;17.73;14.40;;;;;;;19.26;64.21;99684.88;126635;1088;114539;-82
2021/07/02 06:44:16;;;;;;;;;;;;;;;19.21;63.88;99679.95;126765;1089;100609;-83
2021/07/02 06:47:05;;;;;;;17.57;15.07;;;;;;;19.16;64.38;99676.80;126668;1089;102712;-84
2021/07/02 06:49:53;;;;;;;19.37;16.23;;;;;;;19.14;64.15;99678.72;126830;1089;102646;-84
2021/07/02 06:52:41;;;;;;;19.93;16.40;;;;;;;19.13;64.00;99686.77;126729;1088;114997;-82
2021/07/02 06:55:32;;;;;;;20.33;16.03;;;;;;;19.15;64.13;99688.34;126798;1089;101824;-81
2021/07/02 06:58:22;;;;;;;22.67;16.83;;;;;;;19.12;64.19;99680.64;126619;1090;114800;-82
2021/07/02 07:01:10;;;;;;;22.67;18.77;;;;;;;19.12;64.00;99678.00;126687;1090;102962;-82
2021/07/02 07:03:59;;;;;;;24.20;19.03;;;;;;;19.08;63.96;99684.48;126649;1090;114659;-82
2021/07/02 07:06:48;;;;;;;24.90;20.63;;;;;;;19.07;63.92;99685.45;126716;1088;102898;-82
2021/07/02 07:09:38;;;;;;;26.87;20.43;;;;;;;18.99;64.03;99679.89;126570;1090;114647;-82
2021/07/02 07:12:26;;;;;;;23.70;19.50;;;;;;;18.96;64.20;99674.84;126768;1088;102924;-83
2021/07/02 07:15:15;;;;;;;27.27;21.00;;;;;;;18.96;64.27;99666.91;126578;1090;114788;-82
2021/07/02 07:18:04;;;;;;;27.20;21.10;;;;;;;18.97;64.33;99663.31;126795;1090;102828;-82
2021/07/02 07:20:52;;;;;;;29.00;22.30;;;;;;;19.03;64.49;99665.50;126803;1090;103081;-82
2021/07/02 07:23:39;;;;;;;31.00;24.30;;;;;;;19.08;64.31;99673.08;126683;1089;114239;-82
2021/07/02 07:26:27;;;;;;;29.73;23.70;;;;;;;19.07;63.95;99666.11;126759;1090;102878;-83
2021/07/02 07:29:15;;;;;;;28.23;22.60;;;;;;;19.09;64.12;99661.55;126641;1088;114435;-82
2021/07/02 07:32:04;;;;;;;29.00;21.57;;;;;;;19.12;63.93;99664.78;126712;1089;102876;-82
2021/07/02 07:34:56;;;;;;;27.00;21.20;;;;;;;19.15;64.07;99659.27;126730;1090;102927;-84
2021/07/02 07:37:48;;;;;;;27.00;19.73;;;;;;;19.28;63.78;99651.23;126446;1089;114764;-83
2021/07/02 07:40:37;;;;;;;21.57;18.17;;;;;;;19.36;64.07;99650.63;126725;1090;103155;-82
2021/07/02 07:43:27;;;;;;;26.77;20.60;;;;;;;19.47;63.64;99648.84;126593;1088;114452;-83
2021/07/02 07:46:16;;;;;;;24.00;20.43;;;;;;;19.55;63.66;99637.67;126756;1090;102892;-83
2021/07/02 07:49:04;;;;;;;24.20;19.43;;;;;;;19.63;63.28;99637.92;126779;1088;113549;-83
2021/07/02 07:51:59;;;;;;;25.53;20.87;;;;;;;19.70;63.02;99639.11;126769;1089;102924;-82
2021/07/02 07:54:47;;;;;;;24.60;20.77;;;;;;;19.77;62.87;99642.97;126640;1088;114481;-82
2021/07/02 07:57:36;;;;;;;23.43;19.90;;;;;;;19.74;62.55;99635.25;126711;1090;102943;-82
2021/07/02 08:00:25;;;;;;;23.50;18.37;;;;;;;19.72;62.70;99637.18;126593;1090;114642;-83
2021/07/02 08:03:13;;;;;;;22.00;19.20;;;;;;;19.69;62.42;99637.43;126645;1089;103004;-83
2021/07/02 08:06:01;;;;;;;22.37;18.53;;;;;;;19.59;62.32;99642.63;126556;1090;115015;-84
2021/07/02 08:08:49;;;;;;;20.00;17.10;;;;;;;19.59;62.67;99639.14;126670;1090;102847;-83
2021/07/02 08:11:38;;;;;;;23.13;19.07;;;;;;;19.69;62.93;99632.14;126715;1090;102878;-83
2021/07/02 08:14:26;;;;;;;24.13;19.73;;;;;;;19.77;62.69;99639.48;126677;1090;114297;-87
2021/07/02 08:17:17;;;;;;;21.50;17.70;;;;;;;19.90;62.68;99641.00;126738;1090;102815;-85
2021/07/02 08:20:09;;;;;;;19.33;16.67;;;;;;;20.07;62.44;99636.16;126627;1090;114433;-85
2021/07/02 08:22:57;;;;;;;18.80;16.13;;;;;;;20.25;62.05;99642.59;126742;1089;102945;-85
2021/07/02 08:25:46;;;;;;;20.30;17.40;;;;;;;20.29;61.81;99645.83;126661;1090;114411;-84
2021/07/02 08:31:41;;;;;;;18.40;16.37;;;;;;;20.48;61.54;99652.20;126652;1089;113624;-81
2021/07/02 08:34:29;;;;;;;20.40;16.73;;;;;;;20.49;60.43;99645.93;126587;1090;101264;-82
2021/07/02 08:37:17;;;;;;;18.60;15.90;;;;;;;20.39;60.75;99652.06;126556;1090;114455;-82
2021/07/02 08:40:08;;;;;;;18.93;16.10;;;;;;;20.35;61.03;99651.48;126638;1089;102935;-81
2021/07/02 08:42:56;;;;;;;17.43;15.57;;;;;;;20.34;61.38;99656.91;126630;1090;114587;-82
2021/07/02 08:45:45;;;;;;;18.30;16.30;;;;;;;20.35;61.10;99662.08;126690;1090;102959;-80
2021/07/02 08:48:34;;;;;;;17.00;15.20;;;;;;;20.29;61.05;99673.19;126711;1090;114706;-81
2021/07/02 08:51:25;;;;;;;16.73;14.27;;;;;;;20.24;61.05;99680.64;126774;1090;102966;-81
2021/07/02 08:54:17;;;;;;;15.67;14.07;;;;;;;20.19;61.44;99674.88;126585;1089;113795;-82
2021/07/02 08:57:06;;;;;;;16.27;14.13;;;;;;;20.31;61.38;99683.65;126727;1090;102938;-85
2021/07/02 08:59:55;;;;;;;17.90;14.00;;;;;;;20.29;61.13;99682.91;126573;1090;102944;-85
2021/07/02 09:02:45;;;;;;;15.03;13.17;;;;;;;20.28;60.81;99675.92;126715;1090;114471;-84
2021/07/02 09:05:38;;;;;;;15.20;13.60;;;;;;;20.25;61.22;99689.42;126761;1089;102875;-84
2021/07/02 09:08:26;;;;;;;15.33;13.63;;;;;;;20.26;61.32;99686.64;126796;1088;114511;-84
2021/07/02 09:11:31;;;;;;;14.83;13.23;;;;;;;20.29;61.30;99683.78;126683;1088;102861;-85
2021/07/02 09:14:26;;;;;;;14.13;12.73;;;;;;;20.46;60.94;99687.70;126690;1089;113393;-85
2021/07/02 09:17:14;;;;;;;14.67;12.77;;;;;;;20.54;60.93;99681.80;126772;1088;103023;-84
2021/07/02 09:20:13;;;;;;;14.50;13.00;;;;;;;20.66;60.73;99672.84;126835;1089;114466;-84
2021/07/02 09:23:04;;;;;;;15.00;13.40;;;;;;;20.85;60.49;99690.70;126776;1090;102945;-84
2021/07/02 09:25:55;;;;;;;15.33;13.73;;;;;;;20.98;60.50;99694.82;126646;1090;114457;-84
2021/07/02 09:28:43;;;;;;;14.07;12.67;;;;;;;21.00;59.91;99687.58;126952;1090;102952;-86
2021/07/02 09:31:33;;;;;;;14.90;13.37;;;;;;;20.97;59.88;99690.48;126722;1089;114458;-83
2021/07/02 09:34:22;;;;;;;14.80;13.10;;;;;;;20.95;59.77;99686.30;126755;1088;102983;-84
2021/07/02 09:37:38;;;;;;;16.27;13.77;;;;;;;20.92;59.85;99692.70;126575;1090;114571;-84
2021/07/02 09:40:31;;;;;;;16.73;14.93;;;;;;;20.88;59.63;99701.88;126722;1089;102871;-84
2021/07/02 09:43:29;;;;;;;17.17;15.37;;;;;;;20.87;59.75;99705.50;126643;1089;114608;-85
2021/07/02 09:46:31;;;;;;;18.27;16.00;;;;;;;20.92;59.97;99710.41;126796;1088;101065;-83
2021/07/02 09:49:26;;;;;;;20.97;15.80;;;;;;;20.90;59.85;99715.84;126614;1089;114550;-85
2021/07/02 09:52:14;;;;;;;18.33;15.13;;;;;;;20.79;59.90;99710.58;126637;1090;102879;-85
2021/07/02 09:55:05;;;;;;;19.37;16.20;;;;;;;20.71;59.91;99710.39;126653;1090;114598;-85
2021/07/02 09:58:08;;;;;;;17.13;14.30;;;;;;;20.59;59.84;99712.23;126844;1088;102825;-85
2021/07/02 10:01:02;;;;;;;18.37;14.50;;;;;;;20.55;60.13;99709.97;126821;1090;114690;-85
2021/07/02 10:03:50;;;;;;;17.33;15.43;;;;;;;20.54;60.24;99701.17;126774;1089;103058;-83
2021/07/02 10:06:46;;;;;;;18.67;15.90;;;;;;;20.46;59.88;99706.24;126762;1090;114822;-82
2021/07/02 10:09:33;;;;;;;18.77;16.10;;;;;;;20.43;61.04;99702.04;126941;1088;103063;-82
2021/07/02 10:12:23;;;;;;;17.90;15.83;;;;;;;20.44;60.64;99701.07;126903;1090;103004;-82
2021/07/02 10:15:11;;;;;;;18.07;15.40;;;;;;;20.44;60.53;99703.72;126703;1088;102870;-82
2021/07/02 10:18:00;;;;;;;17.17;15.13;;;;;;;20.56;60.53;99701.89;126811;1089;102902;-82
2021/07/02 10:20:49;;;;;;;18.07;15.70;;;;;;;20.70;60.73;99698.11;126734;1090;114457;-82
2021/07/02 10:23:42;;;;;;;20.90;17.67;;;;;;;20.92;60.39;99692.70;126815;1090;102853;-82
2021/07/02 10:26:35;;;;;;;21.23;18.23;;;;;;;21.11;59.92;99682.22;126627;1089;114714;-82
2021/07/02 10:29:23;;;;;;;21.40;18.47;;;;;;;21.50;60.20;99679.80;126722;1088;102450;-82
2021/07/02 10:32:13;;;;;;;20.03;16.80;;;;;;;21.98;59.66;99681.81;126728;1089;115000;-82
2021/07/02 10:35:02;;;;;;;21.33;17.30;;;;;;;22.26;58.68;99683.73;126900;1088;103170;-82
2021/07/02 10:37:56;;;;;;;21.85;19.45;;;;;;;22.36;58.15;99682.90;126797;1090;114665;-82
2021/07/02 10:40:45;;;;;;;25.53;21.03;;;;;;;22.26;57.00;99689.05;126808;1090;102863;-82
2021/07/02 10:43:33;;;;;;;25.07;21.83;;;;;;;22.16;57.46;99690.84;126568;1090;113897;-81
2021/07/02 10:46:20;;;;;;;25.27;22.30;;;;;;;22.16;57.16;99685.52;126780;1090;104542;-81
2021/07/02 10:49:13;;;;;;;25.10;22.40;;;;;;;22.07;57.60;99690.80;126692;1089;114757;-79
2021/07/02 10:52:22;;;;;;;26.07;22.47;;;;;;;22.03;57.34;99690.20;126875;1090;102946;-81
2021/07/02 10:55:30;;;;;;;26.13;23.33;;;;;;;21.99;57.35;99694.11;126810;1089;114603;-81
2021/07/02 10:58:20;;;;;;;28.27;24.77;;;;;;;21.86;57.56;99694.34;126900;1089;102965;-81
2021/07/02 11:01:13;;;;;;;23.23;20.57;;;;;;;21.75;57.77;99696.27;126698;1090;114591;-81
2021/07/02 11:04:42;;;;;;;21.77;19.07;;;;;;;21.66;58.23;99693.43;126798;1089;102941;-81
2021/07/02 11:07:33;;;;;;;23.10;19.87;;;;;;;21.61;57.95;99697.47;126523;1093;114954;-81
2021/07/02 11:10:22;;;;;;;21.80;19.13;;;;;;;21.60;58.57;99693.97;126653;1093;102900;-81
2021/07/02 11:13:09;;;;;;;21.27;19.00;;;;;;;21.66;58.51;99693.43;126556;1092;114811;-81
2021/07/02 11:16:07;;;;;;;23.30;18.77;;;;;;;21.71;58.11;99691.20;126414;1093;102911;-81
2021/07/02 11:18:54;;;;;;;18.63;15.57;;;;;;;21.68;58.08;99688.83;126412;1092;114818;-81
2021/07/02 11:21:42;;;;;;;22.23;17.23;;;;;;;21.64;58.45;99684.77;126580;1093;103536;-81
2021/07/02 11:25:21;;;;;;;19.57;17.47;;;;;;;21.63;58.38;99682.25;126356;1093;103032;-81
2021/07/02 11:28:13;;;;;;;20.20;18.00;;;;;;;21.53;58.02;99687.50;126636;1092;102987;-82
2021/07/02 11:31:04;;;;;;;20.75;18.55;;;;;;;21.46;58.78;99686.36;126567;1093;102996;-81
2021/07/02 11:34:09;;;;;;;21.80;19.23;;;;;;;21.39;58.46;99690.52;126301;1092;114351;-82
2021/07/02 11:37:10;;;;;;;24.45;19.90;;;;;;;21.34;58.93;99687.40;126340;1092;102923;-80
2021/07/02 11:40:00;;;;;;;21.70;19.37;;;;;;;21.32;58.84;99697.30;126614;1088;115671;-81
2021/07/02 11:42:52;;;;;;;22.30;19.20;;;;;;;21.29;59.03;99697.57;126895;1090;102943;-80
2021/07/02 11:45:42;;;;;;;23.33;19.33;;;;;;;21.26;59.27;99693.38;126226;1089;114436;-83
2021/07/02 11:48:35;;;;;;;26.50;22.13;;;;;;;21.32;59.40;99699.95;126597;1089;104330;-84
2021/07/02 11:51:29;;;;;;;21.43;19.23;;;;;;;21.34;58.73;99695.36;126581;1088;115354;-78
2021/07/02 11:54:20;;;;;;;23.07;20.30;;;;;;;21.38;59.28;99689.69;126496;1090;102853;-78
2021/07/02 11:57:19;;;;;;;21.97;18.93;;;;;;;21.41;58.98;99697.38;126504;1089;113626;-80
2021/07/02 12:00:07;;;;;;;23.05;20.10;;;;;;;21.42;58.78;99690.25;126660;1089;102373;-79
2021/07/02 12:03:00;;;;;;;22.00;19.50;;;;;;;21.45;59.18;99687.33;126401;1090;114590;-80
2021/07/02 12:05:56;;;;;;;23.77;19.10;;;;;;;21.46;59.21;99682.86;126534;1090;102861;-80
2021/07/02 12:08:49;;;;;;;20.33;18.13;;;;;;;21.62;59.12;99678.75;126372;1090;114801;-79
2021/07/02 12:11:45;;;;;;;19.67;17.70;;;;;;;21.76;58.79;99692.64;126634;1089;102945;-79
2021/07/02 12:14:37;;;;;;;20.80;17.30;;;;;;;21.79;58.63;99697.68;126694;1089;114619;-79
2021/07/02 12:17:25;;;;;;;19.27;16.63;;;;;;;21.79;58.22;99684.41;126677;1090;103096;-79
2021/07/02 12:20:13;;;;;;;18.57;16.73;;;;;;;21.80;58.78;99688.73;126525;1090;114676;-78
2021/07/02 12:23:04;;;;;;;19.00;17.00;;;;;;;21.83;58.70;99691.13;126654;1090;102954;-78
2021/07/02 12:26:20;;;;;;;19.23;16.70;;;;;;;21.75;58.17;99694.46;126468;1089;114618;-78
2021/07/02 12:29:14;;;;;;;18.20;16.30;;;;;;;21.62;58.68;99693.84;126513;1089;103420;-79
2021/07/02 12:32:10;;;;;;;18.33;16.27;;;;;;;21.50;58.95;99692.23;126368;1089;114805;-77
2021/07/02 12:34:57;;;;;;;21.07;14.97;;;;;;;21.47;58.68;99692.50;126530;1089;103400;-79
2021/07/02 12:37:47;;;;;;;16.73;15.03;;;;;;;21.39;58.99;99698.48;126615;1090;114624;-79
2021/07/02 12:40:35;;;;;;;16.63;14.57;;;;;;;21.35;58.71;99704.99;126502;1089;100949;-79
2021/07/02 12:43:22;;;;;;;17.03;15.23;;;;;;;21.36;59.51;99699.59;126534;1090;102875;-79
2021/07/02 12:46:10;;;;;;;16.90;15.10;;;;;;;21.45;59.18;99689.98;126423;1090;114527;-80
2021/07/02 12:49:24;;;;;;;19.47;16.60;;;;;;;21.42;59.34;99695.56;126669;1090;103006;-79
2021/07/02 12:55:26;;;;;;;19.73;17.57;;;;;;;21.32;59.15;99690.19;126443;1093;103092;-80
2021/07/02 12:58:14;;;;;;;19.80;16.80;;;;;;;21.26;59.30;99687.23;126175;1092;114275;-81
2021/07/02 13:01:07;;;;;;;19.53;17.33;;;;;;;21.24;59.32;99686.48;126407;1093;102857;-81